This is the latest recevied weather packets stored in our database for station/object W1CAT. If no packets are shown the sender has not sent any weather packets the latest 10 day(s).
| Time | Temp. | Humidity | Pressure | Rain* | Wind** | Luminosity | Snow |
|---|---|---|---|---|---|---|---|
| 1777319342 | 11.11° C | 32% | - | 0 mm | - | - | - |
| 1777319039 | 11.11° C | 31% | - | 0 mm | - | - | - |
| 1777318736 | 11.67° C | 33% | - | 0 mm | - | - | - |
| 1777318432 | 12.22° C | 31% | - | 0 mm | - | - | - |
| 1777318129 | 12.22° C | 32% | - | 0 mm | - | - | - |
| 1777317826 | 12.78° C | 33% | - | 0 mm | - | - | - |
| 1777317523 | 12.22° C | 31% | - | 0 mm | - | - | - |
| 1777317220 | 12.22° C | 32% | - | 0 mm | - | - | - |
| 1777316915 | 13.33° C | 30% | - | 0 mm | - | - | - |
| 1777316613 | 13.33° C | 31% | - | 0 mm | - | - | - |
| 1777316310 | 12.22° C | 34% | - | 0 mm | - | - | - |
| 1777316007 | 11.11° C | 34% | - | 0 mm | - | - | - |
| 1777315706 | 12.78° C | 31% | - | 0 mm | - | - | - |
| 1777315403 | 12.22° C | 31% | - | 0 mm | - | - | - |
| 1777315101 | 12.22° C | 31% | - | 0 mm | - | - | - |
| 1777314801 | 10.56° C | 34% | - | 0 mm | - | - | - |
| 1777314498 | 12.22° C | 33% | - | 0 mm | - | - | - |
| 1777314195 | 12.78° C | 32% | - | 0 mm | - | - | - |
| 1777313893 | 11.67° C | 34% | - | 0 mm | - | - | - |
| 1777313589 | 11.67° C | 33% | - | 0 mm | - | - | - |
| 1777313288 | 11.67° C | 33% | - | 0 mm | - | - | - |
| 1777312983 | 11.11° C | 34% | - | 0 mm | - | - | - |
| 1777312680 | 11.67° C | 34% | - | 0 mm | - | - | - |
| 1777312377 | 11.67° C | 33% | - | 0 mm | - | - | - |
| 1777312074 | 11.67° C | 33% | - | 0 mm | - | - | - |
* Rain latest hour (hover to see other rain measurements)
** Current wind speed in m/s (hover to see current wind gust speed)